CST,Max TemperatureF,Mean TemperatureF,Min TemperatureF,Max Dew PointF,MeanDew PointF,Min DewpointF,Max Humidity, Mean Humidity, Min Humidity, Max Sea Level PressureIn, Mean Sea Level PressureIn, Min Sea Level PressureIn, Max VisibilityMiles, Mean VisibilityMiles, Min VisibilityMiles, Max Wind SpeedMPH, Mean Wind SpeedMPH, Max Gust SpeedMPH,PrecipitationIn, CloudCover, Events, WindDirDegrees
2014-2-1,26,20,13,19,13,5,88,81,73,30.30,30.00,29.87,10,6,0,20,11,25,0.24,7,Fog-Snow,14
2014-2-2,16,6,-4,4,-1,-8,87,70,53,30.43,30.37,30.30,10,10,10,16,7,20,0.00,0,,243
2014-2-3,22,11,-1,9,3,-5,87,70,52,30.40,30.35,30.31,10,10,10,14,7,17,0.00,2,,174
2014-2-4,20,15,10,15,11,5,92,77,62,30.34,30.22,30.12,10,3,0,25,13,33,0.35,8,Fog-Snow,40
2014-2-5,10,1,-8,4,-4,-13,86,73,60,30.68,30.46,30.21,10,7,2,25,16,34,T,6,Snow,337
2014-2-6,7,-2,-12,-6,-11,-16,83,69,55,30.67,30.60,30.50,10,10,10,15,9,17,0.00,1,,272
2014-2-7,12,3,-6,3,-4,-11,79,66,53,30.48,30.39,30.26,10,10,6,14,7,16,T,5,Snow,198
2014-2-8,22,16,10,16,11,4,84,79,73,30.26,30.15,30.07,10,7,2,15,6,18,T,8,Snow,193
2014-2-9,19,10,0,16,3,-7,84,73,61,30.49,30.34,30.18,10,9,5,17,10,21,T,5,,349
2014-2-10,10,1,-8,-6,-9,-13,83,67,50,30.58,30.54,30.50,10,10,10,14,6,16,0.00,0,,348
2014-2-11,14,2,-9,0,-6,-14,82,67,53,30.56,30.45,30.26,10,10,10,12,6,,0.00,4,,152
2014-2-12,26,17,8,17,9,-3,84,73,61,30.26,30.09,29.96,10,8,0,14,6,19,0.03,7,Snow,183
2014-2-13,44,33,22,30,22,17,88,72,55,29.94,29.80,29.70,10,9,4,22,11,27,0.00,3,,235
2014-2-14,25,16,6,18,13,2,91,74,57,30.16,29.82,29.61,10,7,0,21,12,24,0.19,6,Fog-Snow,11
2014-2-15,34,19,4,27,14,1,88,76,63,30.13,30.01,29.89,10,10,9,24,10,30,T,3,,201
2014-2-16,30,26,22,24,20,17,88,78,68,30.25,30.13,29.98,10,10,9,17,9,23,0.00,5,,72
2014-2-17,46,36,25,32,27,21,100,77,53,29.98,29.86,29.76,10,6,0,24,11,32,0.09,5,Fog-Rain-Snow,217
2014-2-18,54,44,34,34,29,24,82,62,42,29.92,29.77,29.65,10,10,10,28,15,36,0.00,0,,232
2014-2-19,46,37,27,36,31,27,92,75,58,30.00,29.88,29.66,10,10,6,14,8,19,0.14,3,Rain,183
2014-2-20,38,33,27,37,32,20,100,85,69,29.70,29.47,29.27,10,5,2,35,18,45,0.75,8,Rain-Snow-Thunderstorm,340
2014-2-21,45,34,23,28,21,14,75,59,43,29.90,29.82,29.66,10,10,10,31,14,39,0.00,2,,261
2014-2-22,40,31,22,26,19,6,92,67,42,30.19,30.03,29.90,10,10,10,17,10,21,0.00,3,,10
2014-2-23,29,24,19,14,10,7,73,58,42,30.39,30.33,30.22,10,10,10,17,9,21,0.00,3,,355
2014-2-24,26,24,21,18,13,7,77,62,46,30.42,30.34,30.27,10,9,2,12,5,14,0.01,7,Snow,24
2014-2-25,21,14,7,16,5,-4,88,71,53,30.51,30.39,30.28,10,10,7,26,13,35,T,5,Snow,354
2014-2-26,27,14,0,14,2,-6,79,58,36,30.50,30.20,29.93,10,10,10,26,14,33,0.00,0,,274
2014-2-27,23,13,2,5,-8,-16,67,45,22,30.24,30.13,29.99,10,10,10,23,10,30,0.00,2,,36
2014-2-28,47,29,10,22,13,-2,75,52,29,30.10,29.96,29.85,10,8,1,24,12,30,0.03,5,Snow,67